Time;durP1;ratioP1;P1;durP2;ratioP2;P2;SDS_P1;SDS_P2;PMS_P1;PMS_P2;Temp;Humidity;BMP_temperature;BMP_pressure;BME280_temperature;BME280_humidity;BME280_pressure;Samples;Min_cycle;Max_cycle;Signal;HPM_P1;HPM_P2
2022/06/19 00:02:20;;;;;;;11.73;5.80;;;;;;;16.31;62.39;100518.16;1727573;83;21004;-59
2022/06/19 00:04:53;;;;;;;15.03;5.67;;;;;;;16.29;62.35;100527.23;1727491;83;22031;-60
2022/06/19 00:07:22;;;;;;;11.40;6.17;;;;;;;16.30;62.41;100531.69;1727495;83;21032;-59
2022/06/19 00:09:51;;;;;;;11.88;5.87;;;;;;;16.28;62.35;100530.53;1727624;83;21182;-59
2022/06/19 00:12:21;;;;;;;13.18;6.10;;;;;;;16.23;62.31;100523.44;1727411;83;21500;-59
2022/06/19 00:14:49;;;;;;;11.57;6.17;;;;;;;16.22;62.41;100529.20;1727516;83;21040;-59
2022/06/19 00:17:20;;;;;;;11.43;5.70;;;;;;;16.18;62.41;100531.05;1727813;83;21494;-59
2022/06/19 00:19:49;;;;;;;13.05;5.62;;;;;;;16.16;62.50;100528.20;1727917;83;21103;-58
2022/06/19 00:22:18;;;;;;;11.22;5.80;;;;;;;16.16;62.39;100535.96;1727640;83;21464;-58
2022/06/19 00:24:46;;;;;;;11.97;5.72;;;;;;;16.13;62.54;100537.81;1727550;83;21075;-58
2022/06/19 00:27:15;;;;;;;12.25;5.55;;;;;;;16.14;62.67;100538.66;1727671;83;21480;-58
2022/06/19 00:29:45;;;;;;;12.43;5.72;;;;;;;16.15;62.68;100535.66;1727535;83;21059;-58
2022/06/19 00:32:14;;;;;;;12.23;6.40;;;;;;;16.13;62.73;100534.20;1727576;83;21039;-57
2022/06/19 00:34:43;;;;;;;10.78;5.47;;;;;;;16.07;62.83;100529.05;1727993;82;21514;-59
2022/06/19 00:37:12;;;;;;;13.60;6.00;;;;;;;16.07;62.98;100530.97;1727524;80;21047;-59
2022/06/19 00:39:42;;;;;;;12.85;5.90;;;;;;;16.06;62.99;100528.75;1727583;83;21087;-59
2022/06/19 00:42:14;;;;;;;9.93;6.25;;;;;;;16.04;62.90;100529.52;1727764;83;21091;-60
2022/06/19 00:44:43;;;;;;;10.65;5.80;;;;;;;16.03;62.89;100536.12;1727589;83;21012;-58
2022/06/19 00:47:22;;;;;;;11.60;5.95;;;;;;;15.99;62.83;100537.66;1727655;83;21452;-58
2022/06/19 00:50:02;;;;;;;13.03;5.55;;;;;;;15.99;62.90;100531.28;1727388;83;21043;-59
2022/06/19 00:52:38;;;;;;;11.55;6.53;;;;;;;15.97;63.07;100538.42;1727519;82;21091;-59
2022/06/19 00:55:26;;;;;;;;;;;;;;;15.93;63.21;100535.81;1730039;83;21032;-58
2022/06/19 00:58:01;;;;;;;9.85;5.83;;;;;;;15.89;63.32;100531.81;1727470;83;20507;-58
2022/06/19 01:00:31;;;;;;;11.53;6.08;;;;;;;15.87;63.42;100539.49;1727290;83;21067;-59
2022/06/19 01:03:09;;;;;;;12.37;6.15;;;;;;;15.85;63.35;100538.87;1727837;83;21067;-58
2022/06/19 01:05:38;;;;;;;11.45;6.10;;;;;;;15.76;63.53;100535.56;1727910;82;21078;-60
2022/06/19 01:08:07;;;;;;;11.78;6.08;;;;;;;15.76;63.76;100536.95;1702997;83;21546;-58
2022/06/19 01:10:40;;;;;;;10.88;6.15;;;;;;;15.78;63.82;100531.20;1727344;83;21487;-60
2022/06/19 01:13:13;;;;;;;11.80;5.55;;;;;;;15.78;63.76;100529.81;1727277;83;21028;-59
2022/06/19 01:15:43;;;;;;;12.05;6.20;;;;;;;15.72;63.69;100532.11;1727826;83;21035;-59
2022/06/19 01:18:13;;;;;;;12.10;5.83;;;;;;;15.69;63.75;100526.50;1727552;83;21028;-58
2022/06/19 01:20:44;;;;;;;10.72;5.90;;;;;;;15.70;63.94;100532.88;1727549;83;21789;-59
2022/06/19 01:23:31;;;;;;;9.75;5.67;;;;;;;15.67;64.02;100531.41;1727784;83;21000;-59
2022/06/19 01:25:59;;;;;;;11.88;5.80;;;;;;;15.69;64.07;100525.66;1727523;82;21138;-58
2022/06/19 01:28:55;;;;;;;10.45;5.55;;;;;;;15.69;63.93;100532.56;1727498;83;21083;-58
2022/06/19 01:31:19;;;;;;;13.68;5.90;;;;;;;15.69;63.88;100535.33;1726571;83;21044;-61
2022/06/19 01:33:59;;;;;;;10.80;6.00;;;;;;;15.69;63.79;100533.95;1727466;83;21035;-60
2022/06/19 01:36:30;;;;;;;11.83;6.25;;;;;;;15.67;63.70;100534.17;1727721;82;21107;-58
2022/06/19 01:38:59;;;;;;;9.95;5.80;;;;;;;15.63;63.91;100532.09;1703672;83;21464;-59
2022/06/19 01:41:33;;;;;;;10.35;5.47;;;;;;;15.62;64.04;100531.79;1727790;83;21043;-59
2022/06/19 01:44:04;;;;;;;10.40;5.58;;;;;;;15.62;64.07;100527.64;1727582;83;21067;-58
2022/06/19 01:46:34;;;;;;;10.70;5.72;;;;;;;15.61;64.12;100530.94;1703401;83;21043;-59
2022/06/19 01:49:03;;;;;;;9.70;5.53;;;;;;;15.60;64.04;100536.13;1727701;83;21028;-59
2022/06/19 01:51:32;;;;;;;9.90;5.60;;;;;;;15.57;64.11;100542.08;1727513;83;21036;-59
2022/06/19 01:54:18;;;;;;;9.38;5.80;;;;;;;15.56;64.23;100541.77;1727224;83;21527;-58
2022/06/19 01:56:47;;;;;;;12.43;5.83;;;;;;;15.58;64.13;100543.80;1727535;83;21078;-58
2022/06/19 01:59:16;;;;;;;11.33;5.97;;;;;;;15.55;63.93;100535.39;1703105;83;21110;-60
2022/06/19 02:01:45;;;;;;;12.05;6.05;;;;;;;15.55;63.95;100536.78;1727319;83;21000;-59
2022/06/19 02:04:14;;;;;;;10.55;5.72;;;;;;;15.57;64.21;100539.84;1727757;83;21098;-58
2022/06/19 02:06:46;;;;;;;9.80;5.60;;;;;;;15.59;64.22;100538.58;1727409;83;21032;-58
2022/06/19 02:09:18;;;;;;;10.08;5.45;;;;;;;15.65;63.98;100536.86;1727457;83;21525;-58
2022/06/19 02:11:48;;;;;;;11.53;6.05;;;;;;;15.69;63.70;100536.17;1727587;83;21059;-58
2022/06/19 02:14:17;;;;;;;9.33;6.05;;;;;;;15.75;63.49;100538.56;1727686;83;21094;-58
2022/06/19 02:16:46;;;;;;;12.07;5.37;;;;;;;15.81;63.20;100543.17;1727400;83;21071;-59
2022/06/19 02:19:15;;;;;;;10.80;5.97;;;;;;;15.85;62.87;100543.87;1727555;83;21075;-59
2022/06/19 02:21:52;;;;;;;10.80;5.92;;;;;;;15.87;62.92;100549.16;1727814;83;21039;-59
2022/06/19 02:24:23;;;;;;;9.98;5.75;;;;;;;15.93;62.86;100549.63;1727437;83;21134;-57
2022/06/19 02:26:52;;;;;;;10.10;5.80;;;;;;;16.00;62.74;100540.73;1727487;83;21036;-59
2022/06/19 02:29:21;;;;;;;11.05;5.60;;;;;;;16.08;62.75;100547.87;1727399;83;21039;-61
2022/06/19 02:31:53;;;;;;;9.93;5.50;;;;;;;16.14;62.74;100553.86;1727653;83;21060;-58
2022/06/19 02:34:36;;;;;;;10.48;5.60;;;;;;;16.19;62.50;100548.48;1727633;83;21003;-58
2022/06/19 02:37:08;;;;;;;13.32;5.85;;;;;;;16.21;62.37;100547.71;1727029;82;21905;-59
2022/06/19 02:40:17;;;;;;;12.07;5.72;;;;;;;16.23;62.42;100554.39;1711614;84;21079;-58
2022/06/19 02:42:47;;;;;;;9.95;5.92;;;;;;;16.24;62.22;100557.46;1711908;84;21055;-59
2022/06/19 02:45:22;;;;;;;11.95;6.20;;;;;;;16.24;62.16;100559.69;1711665;83;21075;-60
2022/06/19 02:47:54;;;;;;;9.83;5.58;;;;;;;16.26;62.19;100557.57;1711767;84;21036;-59
2022/06/19 02:50:28;;;;;;;9.70;5.70;;;;;;;16.27;62.03;100553.73;1711763;84;21062;-59
2022/06/19 02:52:56;;;;;;;11.28;5.60;;;;;;;16.25;62.08;100553.62;1711404;84;21012;-57
2022/06/19 02:55:25;;;;;;;10.03;5.75;;;;;;;16.22;62.34;100550.78;1711418;84;21091;-59
2022/06/19 02:57:57;;;;;;;9.20;5.55;;;;;;;16.21;62.56;100547.71;1711848;84;21016;-58
2022/06/19 03:00:26;;;;;;;8.78;5.37;;;;;;;16.15;62.88;100543.95;1711728;84;21488;-58
2022/06/19 03:03:01;;;;;;;10.13;5.00;;;;;;;16.17;63.17;100540.42;1711986;84;21027;-60
2022/06/19 03:05:31;;;;;;;8.73;5.47;;;;;;;16.21;63.27;100546.87;1711680;83;21031;-60
2022/06/19 03:08:01;;;;;;;12.47;5.72;;;;;;;16.19;63.40;100541.57;1654460;86;21095;-59
2022/06/19 03:10:31;;;;;;;11.53;5.70;;;;;;;16.22;63.51;100548.55;1708841;84;21564;-59
2022/06/19 03:13:01;;;;;;;10.63;5.50;;;;;;;16.25;63.35;100541.18;1708737;84;21043;-59
2022/06/19 03:15:32;;;;;;;10.65;5.20;;;;;;;16.30;63.28;100538.06;1708874;84;21119;-60
2022/06/19 03:18:01;;;;;;;14.05;6.03;;;;;;;16.36;62.89;100527.98;1708933;84;21095;-60
2022/06/19 03:20:30;;;;;;;9.18;5.45;;;;;;;16.41;62.95;100530.91;1708733;84;21059;-58
2022/06/19 03:23:00;;;;;;;8.20;4.97;;;;;;;16.40;62.79;100536.13;1708751;84;21067;-59
2022/06/19 03:25:29;;;;;;;9.65;4.83;;;;;;;16.41;62.48;100533.67;1720917;81;21408;-59
2022/06/19 03:27:59;;;;;;;10.98;4.78;;;;;;;16.45;62.20;100534.34;1767358;81;21447;-58
2022/06/19 03:30:29;;;;;;;9.93;4.90;;;;;;;16.52;62.14;100527.34;1767094;81;21408;-59
2022/06/19 03:32:59;;;;;;;10.48;4.75;;;;;;;16.58;61.96;100532.48;1767045;81;21451;-59
2022/06/19 03:35:29;;;;;;;9.53;4.85;;;;;;;16.64;61.92;100529.63;1767087;81;21246;-59
2022/06/19 03:37:58;;;;;;;9.90;4.60;;;;;;;16.70;61.62;100534.25;1766791;81;21463;-58
2022/06/19 03:40:27;;;;;;;8.23;4.40;;;;;;;16.76;61.49;100537.46;1767197;80;21066;-60
2022/06/19 03:42:56;;;;;;;9.53;4.47;;;;;;;16.79;61.56;100536.15;1767266;80;21471;-58
2022/06/19 03:45:25;;;;;;;7.80;4.92;;;;;;;16.81;61.61;100528.45;1767303;81;21031;-60
2022/06/19 03:47:53;;;;;;;8.93;4.37;;;;;;;16.84;61.79;100521.60;1767094;81;20984;-59
2022/06/19 03:50:24;;;;;;;7.10;4.08;;;;;;;16.89;61.79;100522.58;1766914;81;21364;-59
2022/06/19 03:52:54;;;;;;;7.55;4.47;;;;;;;16.98;61.42;100530.04;1766976;81;21023;-60
2022/06/19 03:55:24;;;;;;;7.05;4.33;;;;;;;17.06;61.48;100531.08;1767084;81;21011;-58
2022/06/19 03:57:52;;;;;;;8.53;4.20;;;;;;;17.13;61.69;100530.97;1767374;81;21035;-59
2022/06/19 04:00:21;;;;;;;6.78;3.95;;;;;;;17.17;61.66;100535.80;1767315;81;20987;-58
2022/06/19 04:02:50;;;;;;;8.03;4.40;;;;;;;17.23;61.57;100522.39;1767067;81;20984;-60
2022/06/19 04:05:19;;;;;;;9.23;4.08;;;;;;;17.30;61.15;100525.05;1767255;81;20972;-58
2022/06/19 04:07:49;;;;;;;5.70;3.83;;;;;;;17.38;60.57;100531.08;1767237;81;21066;-58
2022/06/19 04:10:19;;;;;;;5.97;4.00;;;;;;;17.48;60.25;100531.02;1767005;81;21042;-58
2022/06/19 04:12:50;;;;;;;5.85;3.72;;;;;;;17.57;60.04;100527.69;1766838;81;21023;-59
2022/06/19 04:15:19;;;;;;;7.17;3.95;;;;;;;17.68;59.79;100521.87;1766948;80;21036;-59
2022/06/19 04:17:49;;;;;;;7.50;3.47;;;;;;;17.77;59.69;100525.97;1767128;81;20991;-58
2022/06/19 04:20:18;;;;;;;7.28;3.80;;;;;;;17.84;59.43;100525.84;1767207;81;21486;-60
2022/06/19 04:22:48;;;;;;;5.95;3.45;;;;;;;17.94;59.23;100526.91;1767086;80;21007;-58
2022/06/19 04:25:18;;;;;;;6.05;4.00;;;;;;;18.05;58.82;100530.75;1743341;81;21415;-59
2022/06/19 04:27:46;;;;;;;6.10;3.35;;;;;;;18.12;58.79;100531.46;1766873;81;21506;-59
2022/06/19 04:30:17;;;;;;;5.85;3.50;;;;;;;18.20;58.42;100528.86;1766515;81;21039;-58
2022/06/19 04:32:46;;;;;;;4.75;3.37;;;;;;;18.30;58.44;100533.27;1767437;81;21016;-58
2022/06/19 04:35:15;;;;;;;4.28;3.22;;;;;;;18.37;58.13;100530.64;1767337;80;21800;-58
2022/06/19 04:37:44;;;;;;;5.22;3.58;;;;;;;18.48;57.87;100529.47;1763476;81;21047;-58
2022/06/19 04:40:13;;;;;;;7.47;3.12;;;;;;;18.61;57.57;100534.21;1727783;83;21035;-59
2022/06/19 04:42:42;;;;;;;4.95;3.60;;;;;;;18.73;57.40;100533.32;1727610;82;21027;-58
2022/06/19 04:45:13;;;;;;;5.03;3.37;;;;;;;18.83;57.20;100523.25;1727595;82;21067;-59
2022/06/19 04:47:42;;;;;;;5.83;3.27;;;;;;;18.97;56.97;100519.64;1727800;83;21460;-59
2022/06/19 04:50:11;;;;;;;5.25;3.50;;;;;;;19.08;56.86;100521.52;1727840;83;21142;-58
2022/06/19 04:52:41;;;;;;;6.42;3.40;;;;;;;19.22;56.58;100524.26;1727407;83;21517;-58
2022/06/19 04:55:12;;;;;;;9.45;3.47;;;;;;;19.40;56.31;100519.55;1703322;83;21079;-58
2022/06/19 04:57:42;;;;;;;10.58;4.10;;;;;;;19.60;55.95;100513.83;1727755;82;21107;-58
2022/06/19 05:00:15;;;;;;;5.65;3.40;;;;;;;19.87;55.74;100514.49;1727543;83;21420;-58
2022/06/19 05:02:49;;;;;;;6.30;3.12;;;;;;;20.16;55.15;100516.05;1727592;83;21130;-59
2022/06/19 05:05:19;;;;;;;9.00;3.40;;;;;;;20.52;54.28;100521.53;1727561;83;21004;-59
2022/06/19 05:07:48;;;;;;;5.83;2.98;;;;;;;20.91;53.46;100527.55;1727637;82;21055;-57
2022/06/19 05:10:17;;;;;;;7.50;2.98;;;;;;;21.31;52.71;100522.95;1727632;83;21035;-57
2022/06/19 05:12:46;;;;;;;6.97;2.83;;;;;;;21.72;51.76;100523.58;1727736;83;21491;-59
2022/06/19 05:15:15;;;;;;;2.72;2.30;;;;;;;22.13;50.94;100523.88;1727656;83;21412;-58
2022/06/19 05:17:45;;;;;;;3.70;2.55;;;;;;;22.56;48.35;100528.81;1669408;86;21031;-58
2022/06/19 05:20:14;;;;;;;5.65;2.10;;;;;;;22.97;46.67;100524.23;1669428;86;21003;-59
2022/06/19 05:22:44;;;;;;;3.05;2.40;;;;;;;23.30;46.08;100522.31;1669428;86;21031;-59
2022/06/19 05:25:14;;;;;;;4.83;2.20;;;;;;;23.67;44.83;100527.67;1669602;86;21011;-60
2022/06/19 05:27:45;;;;;;;2.15;1.95;;;;;;;23.89;43.56;100523.72;1590404;90;21034;-58
2022/06/19 05:30:15;;;;;;;7.72;4.20;;;;;;;24.09;42.83;100529.86;1590538;90;21545;-59
2022/06/19 05:32:45;;;;;;;3.20;2.10;;;;;;;24.21;42.40;100529.81;1590641;90;21090;-59
2022/06/19 05:35:14;;;;;;;2.95;1.90;;;;;;;24.40;41.92;100534.27;1601989;87;21431;-60
2022/06/19 05:37:43;;;;;;;3.83;1.90;;;;;;;24.67;41.48;100533.85;1642207;87;21039;-59
2022/06/19 05:40:13;;;;;;;3.05;1.82;;;;;;;24.96;40.75;100534.00;1648695;85;21117;-59
2022/06/19 05:42:43;;;;;;;5.70;2.20;;;;;;;25.25;40.66;100527.93;1648942;87;21462;-59
2022/06/19 05:45:13;;;;;;;3.72;2.15;;;;;;;25.60;40.00;100539.45;1666576;83;21411;-59
2022/06/19 05:47:42;;;;;;;1.90;1.70;;;;;;;25.93;39.11;100538.33;1734524;82;21067;-59
2022/06/19 05:50:12;;;;;;;3.22;2.00;;;;;;;26.20;38.57;100530.77;1734583;82;21469;-59
2022/06/19 05:52:42;;;;;;;4.40;2.00;;;;;;;26.52;37.95;100530.12;1734525;83;21020;-59
2022/06/19 05:55:12;;;;;;;5.85;1.80;;;;;;;26.84;37.31;100535.05;1734473;83;21498;-60
2022/06/19 05:57:41;;;;;;;2.12;1.57;;;;;;;27.08;36.37;100534.44;1734524;83;21447;-58
2022/06/19 06:00:11;;;;;;;2.55;1.70;;;;;;;27.28;36.17;100543.14;1734803;83;21011;-60
2022/06/19 06:02:39;;;;;;;2.20;1.40;;;;;;;27.47;35.22;100547.36;1734677;83;21019;-58
2022/06/19 06:05:10;;;;;;;4.50;1.75;;;;;;;27.93;34.45;100542.36;1734166;83;21019;-59
2022/06/19 06:07:40;;;;;;;2.92;1.55;;;;;;;27.93;34.45;100542.36;1734346;83;21150;-59
2022/06/19 06:10:10;;;;;;;2.05;1.32;;;;;;;28.12;33.90;100538.92;1734723;83;21027;-59
2022/06/19 06:12:39;;;;;;;2.12;1.40;;;;;;;28.24;33.29;100529.99;1734573;83;21380;-59
2022/06/19 06:15:11;;;;;;;2.98;1.70;;;;;;;28.32;33.44;100542.78;1734511;83;21028;-59
2022/06/19 06:17:39;;;;;;;2.10;1.75;;;;;;;28.46;33.34;100541.37;1734576;82;21148;-59
2022/06/19 06:20:09;;;;;;;3.35;1.87;;;;;;;28.60;33.04;100537.97;1734486;83;21071;-58
2022/06/19 06:22:39;;;;;;;1.82;1.60;;;;;;;28.69;32.34;100537.52;1734135;82;21059;-58
2022/06/19 06:25:11;;;;;;;3.40;1.50;;;;;;;28.70;32.27;100542.00;1734427;83;21525;-62
2022/06/19 06:27:40;;;;;;;3.45;1.60;;;;;;;28.76;32.58;100541.31;1734602;83;21460;-61
2022/06/19 06:30:11;;;;;;;3.45;1.60;;;;;;;28.87;32.31;100539.13;1734764;83;21554;-59
2022/06/19 06:32:40;;;;;;;2.98;1.30;;;;;;;29.00;32.13;100533.45;1734723;83;21031;-59
2022/06/19 06:35:09;;;;;;;3.27;1.37;;;;;;;29.12;31.90;100534.31;1734529;82;21039;-58
2022/06/19 06:37:38;;;;;;;3.25;1.72;;;;;;;29.08;31.95;100531.87;1734823;83;21000;-59
2022/06/19 06:40:11;;;;;;;2.20;1.30;;;;;;;29.09;31.54;100529.30;1728452;80;21456;-59
2022/06/19 06:42:45;;;;;;;1.60;1.50;;;;;;;29.08;31.37;100531.87;1727394;83;21051;-59
2022/06/19 06:45:14;;;;;;;1.40;1.30;;;;;;;29.08;31.80;100534.69;1727691;83;21063;-60
2022/06/19 06:47:44;;;;;;;1.60;1.20;;;;;;;29.20;31.54;100536.95;1727538;83;21452;-59
2022/06/19 06:50:13;;;;;;;3.95;1.45;;;;;;;29.32;31.34;100521.14;1727709;83;21432;-59
2022/06/19 06:52:43;;;;;;;2.77;1.60;;;;;;;29.47;31.19;100528.42;1727533;83;21067;-61
2022/06/19 06:55:11;;;;;;;2.37;1.60;;;;;;;29.60;30.88;100535.16;1727460;83;21036;-61
2022/06/19 06:57:40;;;;;;;5.95;1.45;;;;;;;29.75;30.60;100534.77;1727542;83;21012;-59
2022/06/19 07:00:14;;;;;;;5.65;1.40;;;;;;;29.80;30.03;100527.56;1727419;83;21467;-61
2022/06/19 07:02:44;;;;;;;3.35;1.35;;;;;;;29.78;30.22;100530.45;1727493;82;21051;-59
2022/06/19 07:05:13;;;;;;;4.53;1.35;;;;;;;29.86;30.48;100522.03;1727461;83;21048;-60
2022/06/19 07:07:43;;;;;;;3.08;1.70;;;;;;;29.85;29.85;100520.95;1642268;86;21039;-60
2022/06/19 07:10:13;;;;;;;4.03;1.45;;;;;;;29.75;30.11;100526.29;1642146;87;21083;-58
2022/06/19 07:12:46;;;;;;;6.33;1.82;;;;;;;29.79;29.94;100517.42;1641651;87;21047;-59
2022/06/19 07:15:15;;;;;;;3.60;1.77;;;;;;;29.74;30.10;100520.38;1642053;87;21043;-59
2022/06/19 07:17:44;;;;;;;1.65;1.35;;;;;;;29.79;30.76;100508.95;1642025;87;21063;-61
2022/06/19 07:20:13;;;;;;;2.27;1.62;;;;;;;30.08;30.11;100507.08;1642294;87;21068;-58
2022/06/19 07:22:41;;;;;;;2.40;1.32;;;;;;;30.21;29.79;100503.89;1642425;87;21086;-62
2022/06/19 07:25:17;;;;;;;3.95;1.77;;;;;;;30.34;29.99;100505.77;1659390;83;21048;-59
2022/06/19 07:27:46;;;;;;;4.35;2.42;;;;;;;30.50;30.03;100494.83;1727299;83;21056;-60
2022/06/19 07:34:16;;;;;;;1.80;1.27;;;;;;;30.85;28.94;100485.88;1829994;77;22136;-60
2022/06/19 07:36:47;;;;;;;2.25;1.50;;;;;;;30.70;28.30;100483.53;1722977;82;21739;-59
2022/06/19 07:39:19;;;;;;;2.72;1.40;;;;;;;30.65;28.86;100485.11;1740020;82;21695;-59
2022/06/19 07:41:48;;;;;;;2.90;1.40;;;;;;;30.69;29.18;100481.88;1724020;83;21110;-59
2022/06/19 07:44:16;;;;;;;3.52;1.82;;;;;;;30.76;28.73;100475.97;1739765;82;21143;-60
2022/06/19 07:52:21;;;;;;;3.05;1.20;;;;;;;31.02;28.32;100470.32;1724093;83;21611;-60
2022/06/19 07:54:50;;;;;;;2.20;1.40;;;;;;;31.14;27.35;100456.91;1739831;82;21579;-59
2022/06/19 07:57:20;;;;;;;3.58;1.15;;;;;;;31.15;27.24;100459.44;1696210;83;21118;-60
2022/06/19 07:59:50;;;;;;;2.15;1.20;;;;;;;31.09;26.75;100462.16;1739753;82;21139;-60
2022/06/19 08:02:19;;;;;;;1.98;1.00;;;;;;;31.03;26.52;100467.74;1723406;83;21182;-58
2022/06/19 08:04:48;;;;;;;3.95;1.20;;;;;;;31.13;26.78;100464.58;1739913;82;21155;-59
2022/06/19 08:07:17;;;;;;;4.80;1.42;;;;;;;31.31;26.64;100464.03;1724450;83;21197;-62
2022/06/19 08:09:48;;;;;;;1.07;0.90;;;;;;;31.39;26.25;100469.44;1739809;82;21140;-59
2022/06/19 08:12:20;;;;;;;4.03;1.65;;;;;;;31.43;25.87;100468.43;1723924;83;21224;-59
2022/06/19 08:14:49;;;;;;;3.42;1.27;;;;;;;31.48;26.09;100464.59;1727328;82;21112;-59
2022/06/19 08:17:19;;;;;;;1.25;1.02;;;;;;;31.51;26.19;100468.16;1715562;82;21551;-63
2022/06/19 08:19:49;;;;;;;1.52;1.20;;;;;;;31.58;26.41;100458.56;1708279;82;21628;-61
2022/06/19 08:22:18;;;;;;;2.58;1.07;;;;;;;31.64;26.23;100463.47;1719158;82;21611;-63
2022/06/19 08:24:48;;;;;;;2.47;1.17;;;;;;;31.65;26.25;100449.55;1723102;82;21113;-60
2022/06/19 08:27:17;;;;;;;1.30;1.10;;;;;;;31.65;25.85;100460.87;1736314;82;21548;-60
2022/06/19 08:29:46;;;;;;;2.98;1.10;;;;;;;31.58;25.71;100465.65;1750964;82;21127;-58
2022/06/19 08:32:16;;;;;;;1.30;1.17;;;;;;;31.69;25.44;100463.28;1723294;83;21590;-61
2022/06/19 08:34:45;;;;;;;3.02;1.20;;;;;;;31.78;25.71;100456.45;1782684;79;21162;-62
2022/06/19 08:37:14;;;;;;;1.15;1.00;;;;;;;31.89;25.40;100464.61;1782502;80;21135;-61
2022/06/19 08:39:43;;;;;;;1.47;1.05;;;;;;;32.00;25.04;100460.23;1782356;80;21115;-61
2022/06/19 08:42:42;;;;;;;1.92;1.10;;;;;;;32.04;24.70;100452.70;1762740;80;21104;-62
2022/06/19 08:45:21;;;;;;;2.22;1.20;;;;;;;32.07;24.92;100446.36;1781463;79;21135;-60
2022/06/19 08:51:48;;;;;;;3.02;1.10;;;;;;;32.03;25.08;100453.88;1782268;80;21152;-59
2022/06/19 08:54:37;;;;;;;2.42;1.10;;;;;;;32.08;24.74;100451.69;1768572;80;21648;-58
2022/06/19 08:57:48;;;;;;;1.50;1.22;;;;;;;32.04;25.35;100446.45;1751717;80;21563;-60
2022/06/19 09:00:42;;;;;;;2.40;1.17;;;;;;;31.89;25.05;100446.19;1781743;80;21159;-58
2022/06/19 09:05:36;;;;;;;1.85;1.00;;;;;;;31.75;25.53;100445.80;1780736;80;21637;-62
2022/06/19 09:06:13;;;;;;;1.95;1.10;;;;;;;31.78;25.30;100439.45;1747861;82;21111;-59
2022/06/19 09:08:49;;;;;;;1.42;1.10;;;;;;;31.78;25.63;100442.87;1682553;85;21134;-59
2022/06/19 09:11:41;;;;;;;2.05;0.85;;;;;;;31.85;25.72;100438.92;1688238;84;21114;-59
2022/06/19 09:14:34;;;;;;;2.22;1.20;;;;;;;31.89;25.32;100427.77;1696172;84;21106;-59
2022/06/19 09:17:13;;;;;;;3.85;1.27;;;;;;;31.75;25.78;100428.80;1711297;84;21253;-60
2022/06/19 09:19:52;;;;;;;2.10;1.30;;;;;;;31.60;26.05;100422.81;1711064;82;21098;-62
2022/06/19 09:22:56;;;;;;;1.65;1.15;;;;;;;31.48;25.86;100413.02;1711083;82;21153;-60
2022/06/19 09:25:50;;;;;;;1.12;0.88;;;;;;;31.20;26.07;100416.80;1698022;84;21276;-61
2022/06/19 09:28:45;;;;;;;2.00;1.15;;;;;;;30.95;26.39;100417.64;1782617;80;21127;-64
2022/06/19 09:31:22;;;;;;;2.52;1.10;;;;;;;30.71;26.74;100415.89;1781876;79;21099;-60
2022/06/19 09:33:56;;;;;;;1.85;1.07;;;;;;;30.62;26.99;100412.23;1777761;80;21148;-60
2022/06/19 09:36:40;;;;;;;2.70;1.10;;;;;;;30.62;26.82;100403.73;1774084;81;21147;-61
2022/06/19 09:39:14;;;;;;;3.27;1.00;;;;;;;30.55;26.92;100416.90;1774241;81;21115;-59
2022/06/19 09:41:54;;;;;;;2.17;1.12;;;;;;;30.38;27.03;100402.16;1754663;81;21135;-59
2022/06/19 09:44:31;;;;;;;1.65;0.90;;;;;;;30.24;27.08;100394.40;1774274;81;21157;-61
2022/06/19 09:47:22;;;;;;;5.75;1.00;;;;;;;30.17;27.22;100401.12;1764703;80;21536;-61
2022/06/19 09:50:10;;;;;;;1.12;0.95;;;;;;;30.08;27.22;100400.27;1748662;81;21544;-60
2022/06/19 09:52:47;;;;;;;1.32;1.00;;;;;;;29.97;27.67;100400.53;1774014;80;21544;-60
2022/06/19 09:55:26;;;;;;;1.77;1.00;;;;;;;29.91;27.43;100393.37;1726944;82;21163;-61
2022/06/19 09:58:31;;;;;;;3.77;1.10;;;;;;;29.72;28.09;100403.23;1774301;80;21139;-61
2022/06/19 10:00:59;;;;;;;2.55;1.10;;;;;;;29.72;28.09;100403.23;1732197;80;21600;-59
2022/06/19 10:03:49;;;;;;;3.25;0.90;;;;;;;29.73;27.31;100388.78;1758133;81;21214;-60
2022/06/19 10:06:25;;;;;;;2.42;1.20;;;;;;;29.69;27.55;100387.77;1743712;81;21171;-61
2022/06/19 10:09:00;;;;;;;3.33;1.00;;;;;;;29.64;27.88;100394.97;1707649;82;21609;-61
2022/06/19 10:11:32;;;;;;;2.10;1.12;;;;;;;29.53;28.05;100400.66;1743438;82;21578;-62
2022/06/19 10:14:18;;;;;;;2.15;1.05;;;;;;;29.52;28.31;100401.81;1705646;82;21603;-61
2022/06/19 10:17:16;;;;;;;1.77;1.12;;;;;;;29.52;28.03;100398.41;1766221;81;21111;-62
2022/06/19 10:20:09;;;;;;;4.30;1.40;;;;;;;29.45;28.07;100399.45;1783693;79;21099;-63
2022/06/19 10:22:50;;;;;;;3.27;1.10;;;;;;;29.44;28.54;100406.83;1774266;81;21621;-62
2022/06/19 10:25:41;;;;;;;1.80;1.20;;;;;;;29.43;28.33;100404.59;1763174;79;21119;-65
2022/06/19 10:28:36;;;;;;;2.30;0.93;;;;;;;29.44;28.66;100409.08;1769421;79;21190;-63
2022/06/19 10:31:47;;;;;;;1.22;0.90;;;;;;;29.47;28.36;100411.83;1753987;81;21159;-61
2022/06/19 10:35:01;;;;;;;1.82;1.00;;;;;;;29.38;28.40;100401.88;1755211;81;21204;-62
2022/06/19 10:38:02;;;;;;;1.98;1.10;;;;;;;29.38;28.40;100401.88;1750069;81;21157;-61
2022/06/19 10:41:07;;;;;;;1.47;1.05;;;;;;;29.21;28.73;100395.52;1743715;81;21198;-63
2022/06/19 10:43:53;;;;;;;0.98;0.90;;;;;;;29.13;28.79;100389.23;1750179;81;21139;-61
2022/06/19 10:46:22;;;;;;;2.12;1.27;;;;;;;29.14;29.16;100404.18;1743500;82;21601;-60
2022/06/19 10:49:36;;;;;;;3.17;1.00;;;;;;;29.15;28.93;100395.39;1758204;81;21108;-61
2022/06/19 10:52:26;;;;;;;1.40;1.17;;;;;;;29.18;28.88;100390.52;1770809;81;21115;-61
2022/06/19 10:55:16;;;;;;;2.12;1.00;;;;;;;29.16;29.14;100398.47;1743521;81;21121;-62
2022/06/19 10:58:17;;;;;;;2.37;1.25;;;;;;;29.22;29.23;100394.36;1743687;81;21164;-61
2022/06/19 11:00:51;;;;;;;2.55;1.32;;;;;;;29.25;29.43;100397.95;1742914;82;21140;-64
2022/06/19 11:06:33;;;;;;;1.40;1.15;;;;;;;29.17;29.17;100384.61;1743738;81;21583;-63
2022/06/19 11:09:08;;;;;;;3.47;1.20;;;;;;;29.13;29.21;100376.54;1744325;81;21161;-62
2022/06/19 11:11:38;;;;;;;1.25;1.15;;;;;;;29.11;29.45;100376.60;1758959;81;21535;-62
2022/06/19 11:14:14;;;;;;;2.02;1.27;;;;;;;29.09;29.40;100370.45;1755546;81;21147;-61
2022/06/19 11:17:04;;;;;;;3.65;1.40;;;;;;;29.08;29.46;100368.78;1766849;81;21143;-61
2022/06/19 11:19:45;;;;;;;3.00;1.07;;;;;;;29.11;29.61;100370.38;1773998;80;21175;-60
2022/06/19 11:22:38;;;;;;;3.05;1.10;;;;;;;29.18;29.55;100367.94;1752194;80;21556;-62
2022/06/19 11:25:21;;;;;;;1.70;1.10;;;;;;;29.24;29.28;100359.59;1743464;82;21436;-61
2022/06/19 11:27:59;;;;;;;1.35;1.00;;;;;;;29.24;29.40;100355.93;1747163;79;21575;-64
2022/06/19 11:30:39;;;;;;;1.90;1.10;;;;;;;29.22;29.30;100357.67;1759347;81;21130;-61
2022/06/19 11:33:16;;;;;;;4.12;1.30;;;;;;;29.15;29.45;100358.70;1706212;84;21239;-61
2022/06/19 11:35:55;;;;;;;2.00;1.10;;;;;;;29.17;29.67;100359.22;1706116;84;21210;-67
2022/06/19 11:38:41;;;;;;;3.75;1.30;;;;;;;29.19;29.65;100354.08;1706014;84;21563;-61
2022/06/19 11:41:34;;;;;;;2.12;1.20;;;;;;;29.25;29.45;100344.32;1705631;84;21182;-63
2022/06/19 11:44:18;;;;;;;2.70;0.98;;;;;;;29.32;29.16;100349.53;1705744;84;21603;-62
2022/06/19 11:46:51;;;;;;;3.10;1.10;;;;;;;29.35;29.00;100346.06;1650291;87;21174;-61
2022/06/19 11:49:32;;;;;;;4.50;0.98;;;;;;;29.37;28.93;100340.92;1650604;87;21554;-61
2022/06/19 11:52:18;;;;;;;3.50;1.10;;;;;;;29.42;29.05;100350.66;1695508;84;21154;-62
2022/06/19 11:54:48;;;;;;;4.50;2.75;;;;;;;29.47;29.11;100347.73;1703570;84;21159;-62
2022/06/19 11:57:30;;;;;;;2.85;1.20;;;;;;;29.38;29.37;100325.65;1701138;84;21190;-61
2022/06/19 12:00:02;;;;;;;1.35;1.10;;;;;;;29.38;29.37;100325.65;1701488;84;21613;-60
2022/06/19 12:02:38;;;;;;;4.03;1.40;;;;;;;29.35;29.61;100331.95;1701623;84;21143;-61
2022/06/19 12:05:28;;;;;;;1.82;1.00;;;;;;;29.42;29.40;100332.89;1701602;84;21123;-62
2022/06/19 12:08:09;;;;;;;5.00;1.22;;;;;;;29.41;29.14;100340.53;1700985;84;21163;-61
2022/06/19 12:10:40;;;;;;;2.37;1.00;;;;;;;29.35;29.33;100326.30;1705072;82;21147;-61
2022/06/19 12:13:33;;;;;;;2.22;1.15;;;;;;;29.35;29.52;100331.95;1701276;84;21222;-63
2022/06/19 12:16:23;;;;;;;3.45;1.35;;;;;;;29.38;29.62;100331.87;1701396;83;21159;-60